Time;durP1;ratioP1;P1;durP2;ratioP2;P2;SDS_P1;SDS_P2;PMS_P1;PMS_P2;Temp;Humidity;BMP_temperature;BMP_pressure;BME280_temperature;BME280_humidity;BME280_pressure;Samples;Min_cycle;Max_cycle;Signal;HPM_P1;HPM_P2
2022/10/30 00:00:33;;;;;;;7.63;6.00;;;;;;;10.97;49.65;100217.69;5012152;28;20026;-80
2022/10/30 00:02:59;;;;;;;8.75;5.93;;;;;;;10.85;49.63;100182.84;5012058;28;20032;-80
2022/10/30 00:05:24;;;;;;;8.23;5.47;;;;;;;11.22;49.59;100232.59;5010963;28;20072;-80
2022/10/30 00:07:50;;;;;;;8.50;5.95;;;;;;;11.72;49.63;100330.25;5012058;28;20058;-80
2022/10/30 00:10:17;;;;;;;8.20;5.60;;;;;;;11.69;48.96;100312.06;5012271;28;20026;-79
2022/10/30 00:12:43;;;;;;;6.50;5.72;;;;;;;11.67;49.58;100324.63;5012948;28;20022;-80
2022/10/30 00:15:09;;;;;;;8.15;5.40;;;;;;;10.73;49.61;100215.84;5013597;28;20060;-80
2022/10/30 00:17:35;;;;;;;8.63;5.57;;;;;;;11.57;49.98;100317.84;5011949;28;20456;-80
2022/10/30 00:20:01;;;;;;;6.85;5.07;;;;;;;11.34;50.01;100289.41;5011783;28;20030;-80
2022/10/30 00:22:26;;;;;;;10.90;5.47;;;;;;;10.92;49.85;100247.22;5011816;28;20057;-79
2022/10/30 00:24:52;;;;;;;7.68;5.45;;;;;;;10.91;49.67;100232.38;5011788;28;20462;-80
2022/10/30 00:27:17;;;;;;;7.15;5.50;;;;;;;11.22;49.70;100253.72;5011922;28;20037;-79
2022/10/30 00:29:43;;;;;;;9.40;5.47;;;;;;;11.23;49.75;100258.03;5011623;28;20029;-80
2022/10/30 00:32:08;;;;;;;7.07;5.95;;;;;;;10.87;49.50;100169.47;5011993;28;20018;-80
2022/10/30 00:34:33;;;;;;;7.00;5.45;;;;;;;11.46;49.59;100266.94;5011604;28;20513;-80
2022/10/30 00:36:59;;;;;;;7.60;5.53;;;;;;;11.43;49.55;100256.69;5011610;28;20108;-80
2022/10/30 00:39:24;;;;;;;7.28;5.60;;;;;;;10.92;48.97;100186.47;5010302;28;20025;-79
2022/10/30 00:41:49;;;;;;;8.25;5.60;;;;;;;11.06;49.09;100179.69;5012014;28;20025;-80
2022/10/30 00:44:34;;;;;;;7.18;5.60;;;;;;;11.81;49.02;100301.16;5010419;28;20108;-80
2022/10/30 00:47:04;;;;;;;8.98;5.63;;;;;;;11.32;48.84;100233.25;5011513;28;20026;-80
2022/10/30 00:49:35;;;;;;;9.65;6.05;;;;;;;11.35;49.28;100227.63;5010416;28;20046;-80
2022/10/30 00:52:04;;;;;;;7.80;5.72;;;;;;;10.88;49.15;100163.19;5011484;28;20026;-80
2022/10/30 00:54:31;;;;;;;6.55;5.35;;;;;;;11.37;49.18;100252.06;5011493;28;20415;-80
2022/10/30 00:56:56;;;;;;;7.05;5.80;;;;;;;10.76;48.86;100142.38;5011608;28;20014;-80
2022/10/30 00:59:27;;;;;;;6.13;5.25;;;;;;;11.66;49.34;100307.09;5011663;28;20053;-80
2022/10/30 01:01:53;;;;;;;5.43;4.60;;;;;;;11.66;49.75;100290.41;5011695;28;20022;-80
2022/10/30 01:04:20;;;;;;;7.60;4.97;;;;;;;11.63;49.19;100288.09;5010369;28;20097;-80
2022/10/30 01:06:50;;;;;;;6.47;5.22;;;;;;;10.92;49.23;100173.25;5011447;28;20522;-79
2022/10/30 01:09:18;;;;;;;6.55;5.53;;;;;;;11.68;48.77;100275.19;5012491;28;20033;-79
2022/10/30 01:11:44;;;;;;;8.38;5.47;;;;;;;11.65;49.19;100270.22;5015454;28;20018;-80
2022/10/30 01:14:11;;;;;;;8.85;6.95;;;;;;;11.64;49.54;100266.75;5015500;28;20512;-80
2022/10/30 01:16:49;;;;;;;7.65;5.47;;;;;;;11.64;49.17;100264.13;5015604;28;20112;-80
2022/10/30 01:19:38;;;;;;;8.55;6.20;;;;;;;11.60;49.16;100265.44;5015793;28;20026;-80
2022/10/30 01:22:34;;;;;;;7.53;5.68;;;;;;;11.50;49.24;100256.03;5015286;28;20029;-80
2022/10/30 01:25:19;;;;;;;10.43;6.10;;;;;;;10.48;49.73;100102.25;5015140;28;20029;-80
2022/10/30 01:28:19;;;;;;;6.40;5.60;;;;;;;11.10;49.78;100228.59;5015372;28;20029;-80
2022/10/30 01:31:10;;;;;;;9.90;5.55;;;;;;;11.07;49.75;100245.59;5015236;28;20049;-80
2022/10/30 01:34:09;;;;;;;6.35;5.32;;;;;;;11.05;49.86;100236.19;5015233;28;20033;-80
2022/10/30 01:36:44;;;;;;;7.18;5.53;;;;;;;10.98;49.83;100237.81;5015007;28;20068;-80
2022/10/30 01:39:14;;;;;;;6.32;5.50;;;;;;;10.56;50.45;100178.00;5014870;28;20029;-80
2022/10/30 01:41:39;;;;;;;7.45;5.40;;;;;;;10.69;50.35;100201.31;5014688;28;20033;-79
2022/10/30 01:44:12;;;;;;;10.38;8.10;;;;;;;10.81;50.24;100208.75;5015019;28;20022;-79
2022/10/30 01:46:43;;;;;;;8.77;6.00;;;;;;;11.04;49.76;100251.22;5014823;28;20036;-80
2022/10/30 01:49:33;;;;;;;7.45;6.10;;;;;;;10.55;50.43;100167.59;5013879;28;20033;-80
2022/10/30 01:52:13;;;;;;;12.40;5.00;;;;;;;10.99;50.96;100253.50;5014594;28;20033;-80
2022/10/30 01:55:00;;;;;;;8.45;5.03;;;;;;;10.62;50.68;100216.97;5014748;28;20056;-80
2022/10/30 01:57:46;;;;;;;5.43;4.90;;;;;;;10.67;50.40;100222.59;5014552;28;20025;-80
2022/10/30 02:00:15;;;;;;;6.53;5.05;;;;;;;10.21;50.41;100157.94;5014371;28;20421;-80
2022/10/30 02:02:41;;;;;;;5.13;4.10;;;;;;;10.02;50.45;100127.34;5014315;28;20030;-80
2022/10/30 02:05:08;;;;;;;6.63;5.18;;;;;;;10.76;50.49;100250.66;5012982;28;20025;-80
2022/10/30 02:07:37;;;;;;;6.55;4.82;;;;;;;10.01;50.78;100136.25;5014325;28;20065;-80
2022/10/30 02:10:04;;;;;;;6.90;5.65;;;;;;;10.09;50.78;100159.19;5013207;28;20049;-81
2022/10/30 02:12:30;;;;;;;7.65;5.00;;;;;;;10.26;50.78;100213.69;5013071;28;20018;-80
2022/10/30 02:14:59;;;;;;;14.68;10.35;;;;;;;10.69;50.97;100240.91;5014377;28;20026;-79
2022/10/30 02:17:26;;;;;;;10.20;7.20;;;;;;;9.69;51.05;100073.66;5014248;28;20054;-80
2022/10/30 02:19:51;;;;;;;7.78;5.63;;;;;;;10.64;50.59;100235.28;5012710;28;20137;-80
2022/10/30 02:22:17;;;;;;;8.43;5.30;;;;;;;10.69;51.22;100231.19;5014385;28;20601;-80
2022/10/30 02:24:43;;;;;;;5.50;4.93;;;;;;;9.86;51.31;100114.09;5014085;28;20101;-80
2022/10/30 02:27:09;;;;;;;7.65;4.90;;;;;;;9.73;50.99;100090.81;5012985;28;20034;-80
2022/10/30 02:29:34;;;;;;;5.35;4.82;;;;;;;10.58;51.12;100235.94;5014091;28;20079;-80
2022/10/30 02:32:00;;;;;;;8.75;5.20;;;;;;;10.01;51.08;100178.44;5014085;28;20029;-80
2022/10/30 02:34:25;;;;;;;7.93;5.22;;;;;;;9.77;51.37;100126.44;5014090;28;20494;-80
2022/10/30 02:36:51;;;;;;;6.15;4.75;;;;;;;9.70;51.42;100085.03;5012601;28;20037;-80
2022/10/30 02:39:16;;;;;;;6.20;5.60;;;;;;;10.07;51.52;100169.06;5012974;28;20026;-80
2022/10/30 02:41:42;;;;;;;5.60;4.70;;;;;;;10.00;51.28;100165.41;5013670;28;20152;-80
2022/10/30 02:44:07;;;;;;;6.05;4.60;;;;;;;10.05;51.10;100158.69;5012427;28;20037;-80
2022/10/30 02:46:33;;;;;;;5.45;4.93;;;;;;;9.73;51.34;100100.53;5013634;28;20032;-80
2022/10/30 02:48:59;;;;;;;6.90;4.97;;;;;;;10.22;51.33;100195.72;5013582;28;20100;-80
2022/10/30 02:51:24;;;;;;;6.10;5.50;;;;;;;9.95;50.96;100130.78;5013439;28;20033;-80
2022/10/30 02:53:50;;;;;;;7.90;5.28;;;;;;;9.42;51.52;100043.03;5013897;28;20113;-80
2022/10/30 02:56:15;;;;;;;6.18;4.82;;;;;;;10.46;51.14;100240.69;5012246;28;20029;-80
2022/10/30 02:58:41;;;;;;;7.32;4.78;;;;;;;9.94;51.39;100153.69;5013478;28;20026;-80
2022/10/30 03:01:06;;;;;;;5.32;4.82;;;;;;;10.30;51.62;100224.75;5013404;28;20415;-80
2022/10/30 03:03:32;;;;;;;6.75;5.15;;;;;;;9.57;51.54;100133.72;5013278;28;20414;-80
2022/10/30 03:06:05;;;;;;;11.35;5.50;;;;;;;9.88;51.81;100178.88;5013228;28;20197;-80
2022/10/30 03:08:31;;;;;;;9.88;5.85;;;;;;;9.37;52.12;100113.84;5011878;28;20049;-80
2022/10/30 03:11:00;;;;;;;5.18;4.68;;;;;;;10.11;52.25;100221.38;5013112;28;20022;-80
2022/10/30 03:13:27;;;;;;;5.68;5.00;;;;;;;9.95;52.07;100208.09;5012925;28;20026;-80
2022/10/30 03:16:01;;;;;;;7.25;5.53;;;;;;;9.75;52.26;100173.22;5013049;28;20462;-80
2022/10/30 03:18:26;;;;;;;5.78;4.60;;;;;;;9.72;52.04;100167.44;5013082;28;20057;-80
2022/10/30 03:20:57;;;;;;;7.15;5.10;;;;;;;9.57;52.29;100159.25;5012936;28;20053;-80
2022/10/30 03:23:22;;;;;;;8.38;5.28;;;;;;;9.41;52.26;100120.47;5012851;28;20029;-80
2022/10/30 03:25:51;;;;;;;7.60;4.55;;;;;;;10.07;52.48;100232.41;5012974;28;20076;-80
2022/10/30 03:28:16;;;;;;;6.20;4.82;;;;;;;9.31;52.35;100113.66;5011476;28;20032;-80
2022/10/30 03:30:42;;;;;;;7.18;4.88;;;;;;;9.63;52.45;100153.34;5012904;28;20414;-80
2022/10/30 03:33:07;;;;;;;6.00;4.47;;;;;;;8.56;52.46;99977.19;5010888;28;20100;-80
2022/10/30 03:35:35;;;;;;;6.78;4.90;;;;;;;9.60;52.41;100163.38;5012670;28;20057;-80
2022/10/30 03:38:00;;;;;;;6.43;4.68;;;;;;;9.28;52.09;100100.78;5012566;28;20026;-80
2022/10/30 03:40:26;;;;;;;8.30;5.20;;;;;;;9.44;52.58;100121.94;5012473;28;20431;-80
2022/10/30 03:42:51;;;;;;;6.13;4.88;;;;;;;10.01;52.00;100207.47;5011313;28;20022;-80
2022/10/30 03:45:16;;;;;;;7.50;5.10;;;;;;;9.51;51.82;100112.44;5012645;28;20026;-79
2022/10/30 03:47:42;;;;;;;9.50;5.55;;;;;;;9.74;52.10;100160.19;5012479;28;20111;-80
2022/10/30 03:50:08;;;;;;;13.93;6.38;;;;;;;9.66;51.89;100139.88;5011130;28;20022;-79
2022/10/30 03:52:33;;;;;;;6.32;4.20;;;;;;;9.96;51.75;100195.75;5012459;28;20065;-80
2022/10/30 03:54:58;;;;;;;6.00;5.00;;;;;;;9.45;51.63;100121.78;5013295;28;20030;-79
2022/10/30 03:57:24;;;;;;;10.70;8.38;;;;;;;9.54;51.86;100144.56;5014694;28;20032;-79
2022/10/30 03:59:49;;;;;;;9.27;7.05;;;;;;;9.08;51.33;100039.59;5013729;28;20586;-80
2022/10/30 04:02:15;;;;;;;12.80;6.22;;;;;;;9.55;51.56;100125.16;5012342;28;20018;-80
2022/10/30 04:04:40;;;;;;;6.07;4.95;;;;;;;9.95;51.79;100188.81;5012264;28;20091;-79
2022/10/30 04:07:05;;;;;;;6.97;5.15;;;;;;;9.80;51.53;100167.47;5012098;28;20038;-79
2022/10/30 04:09:31;;;;;;;6.60;5.15;;;;;;;10.09;51.75;100264.72;5012234;28;20491;-80
2022/10/30 04:11:56;;;;;;;8.48;5.85;;;;;;;9.77;51.65;100176.53;5012222;28;20018;-80
2022/10/30 04:14:22;;;;;;;7.57;5.43;;;;;;;9.68;52.00;100160.81;5012235;28;20033;-80
2022/10/30 04:16:47;;;;;;;8.73;5.82;;;;;;;9.45;51.63;100113.06;5012067;28;20108;-80
2022/10/30 04:19:12;;;;;;;7.45;5.65;;;;;;;10.01;51.98;100231.22;5012033;28;20053;-80
2022/10/30 04:21:38;;;;;;;5.60;5.10;;;;;;;9.11;51.84;100086.69;5012038;28;20022;-80
2022/10/30 04:24:03;;;;;;;7.10;5.82;;;;;;;9.68;52.14;100182.75;5010716;28;20065;-80
2022/10/30 04:26:29;;;;;;;7.03;5.63;;;;;;;9.29;52.06;100132.25;5011953;28;20022;-80
2022/10/30 04:28:54;;;;;;;9.80;5.60;;;;;;;9.34;52.35;100152.84;5011818;28;20029;-80
2022/10/30 04:31:20;;;;;;;6.43;5.30;;;;;;;9.68;52.50;100227.56;5010454;28;20093;-80
2022/10/30 04:33:45;;;;;;;9.50;6.40;;;;;;;9.54;52.64;100205.22;5011902;28;20079;-79
2022/10/30 04:36:10;;;;;;;8.38;5.57;;;;;;;9.19;52.70;100152.59;5011743;28;20022;-80
2022/10/30 04:38:36;;;;;;;8.57;5.55;;;;;;;9.37;52.52;100186.81;5011854;28;20061;-80
2022/10/30 04:41:01;;;;;;;7.55;5.03;;;;;;;9.34;52.24;100180.03;5011994;28;20018;-80
2022/10/30 04:43:26;;;;;;;8.75;6.50;;;;;;;8.99;52.06;100135.34;5026897;28;20383;-80
2022/10/30 04:45:52;;;;;;;6.38;5.53;;;;;;;8.55;52.08;100043.97;5011774;28;20517;-80
2022/10/30 04:48:18;;;;;;;7.18;5.50;;;;;;;9.38;52.44;100191.09;5012102;28;20085;-80
2022/10/30 04:50:44;;;;;;;5.97;4.95;;;;;;;9.36;51.93;100229.97;5012003;28;20096;-80
2022/10/30 04:53:14;;;;;;;7.30;5.95;;;;;;;9.50;52.31;100226.75;5010382;28;20022;-79
2022/10/30 04:55:40;;;;;;;5.45;4.95;;;;;;;9.45;52.43;100234.31;5011837;28;20033;-80
2022/10/30 04:58:07;;;;;;;7.75;5.20;;;;;;;8.73;52.46;100143.16;5011434;28;20022;-80
2022/10/30 05:00:32;;;;;;;7.22;6.00;;;;;;;9.20;52.51;100220.13;5011429;28;20022;-80
2022/10/30 05:03:01;;;;;;;7.50;6.15;;;;;;;8.62;52.62;100099.47;5011378;28;20611;-80
2022/10/30 05:05:30;;;;;;;13.43;8.95;;;;;;;9.53;52.43;100237.81;5011517;28;20022;-80
2022/10/30 05:07:56;;;;;;;9.10;7.20;;;;;;;9.14;52.28;100168.88;5011253;28;20185;-80
2022/10/30 05:10:21;;;;;;;8.05;5.75;;;;;;;9.45;52.34;100245.69;5009995;28;20485;-80
2022/10/30 05:12:47;;;;;;;9.00;7.25;;;;;;;9.08;52.33;100182.66;5011557;28;20018;-80
2022/10/30 05:15:13;;;;;;;8.30;6.03;;;;;;;8.84;52.67;100156.09;5011227;28;20022;-80
2022/10/30 05:17:40;;;;;;;10.60;6.90;;;;;;;9.11;52.59;100213.97;5011297;28;20105;-79
2022/10/30 05:20:06;;;;;;;11.07;7.80;;;;;;;9.18;52.45;100212.38;5011430;28;20034;-80
2022/10/30 05:22:32;;;;;;;9.63;7.55;;;;;;;8.76;52.36;100127.88;5009981;28;20458;-80
2022/10/30 05:24:57;;;;;;;8.52;6.80;;;;;;;8.68;52.43;100114.66;5011098;28;20084;-80
2022/10/30 05:27:23;;;;;;;10.68;7.13;;;;;;;9.54;52.59;100255.28;5010075;28;20022;-80
2022/10/30 05:29:48;;;;;;;11.20;7.53;;;;;;;9.07;52.34;100174.91;5011335;28;20029;-80
2022/10/30 05:32:14;;;;;;;13.13;8.63;;;;;;;8.88;52.93;100163.53;5011125;28;20509;-80
2022/10/30 05:34:39;;;;;;;10.60;8.43;;;;;;;9.08;52.58;100213.44;5011061;28;20032;-80
2022/10/30 05:37:04;;;;;;;12.65;7.65;;;;;;;8.89;52.69;100170.44;5010994;28;20026;-79
2022/10/30 05:39:30;;;;;;;15.82;8.85;;;;;;;9.06;52.73;100189.06;5011163;28;20061;-80
2022/10/30 05:41:55;;;;;;;10.27;7.82;;;;;;;9.08;52.66;100190.56;5011035;28;20018;-80
2022/10/30 05:44:21;;;;;;;9.68;7.82;;;;;;;8.68;52.37;100108.56;5009936;28;20486;-80
2022/10/30 05:46:46;;;;;;;10.63;8.35;;;;;;;9.40;52.33;100216.31;5011223;28;20022;-79
2022/10/30 05:49:11;;;;;;;8.32;6.53;;;;;;;8.74;52.46;100108.78;5011056;28;20022;-81
2022/10/30 05:51:37;;;;;;;9.98;7.38;;;;;;;9.54;52.23;100238.66;5010895;28;20022;-80
2022/10/30 05:54:02;;;;;;;10.77;8.13;;;;;;;9.05;52.28;100174.22;5011295;28;20026;-80
2022/10/30 05:56:28;;;;;;;10.30;7.82;;;;;;;8.75;52.24;100093.81;5012191;28;20026;-80
2022/10/30 05:58:53;;;;;;;13.57;8.77;;;;;;;9.45;52.25;100200.03;5014765;28;20029;-80
2022/10/30 06:01:18;;;;;;;16.58;9.77;;;;;;;9.73;51.87;100249.03;5014418;28;20495;-80
2022/10/30 06:03:44;;;;;;;13.45;8.85;;;;;;;9.54;51.72;100185.94;5014715;28;20101;-80
2022/10/30 06:06:10;;;;;;;15.43;9.85;;;;;;;9.47;51.76;100166.44;5014499;28;20033;-80
2022/10/30 06:08:35;;;;;;;16.15;11.27;;;;;;;9.48;51.77;100166.28;5014222;28;20058;-80
2022/10/30 06:11:00;;;;;;;14.40;9.45;;;;;;;9.72;51.46;100197.28;5014335;28;20018;-80
2022/10/30 06:13:26;;;;;;;14.30;10.35;;;;;;;10.09;51.72;100244.44;5014011;28;20044;-80
2022/10/30 06:15:55;;;;;;;13.90;9.50;;;;;;;10.15;51.86;100243.81;5013058;28;20050;-80
2022/10/30 06:18:21;;;;;;;14.95;9.40;;;;;;;9.38;51.38;100141.84;5014550;28;20049;-80
2022/10/30 06:20:46;;;;;;;13.40;8.32;;;;;;;10.03;51.92;100213.41;5014369;28;20068;-80
2022/10/30 06:23:11;;;;;;;10.75;7.63;;;;;;;9.67;51.36;100156.53;5014059;28;20036;-80
2022/10/30 06:25:37;;;;;;;13.00;8.02;;;;;;;10.18;51.21;100216.28;5014028;28;20026;-80
2022/10/30 06:28:02;;;;;;;10.85;8.05;;;;;;;8.62;51.27;99990.72;5014024;28;20030;-80
2022/10/30 06:30:28;;;;;;;15.35;9.07;;;;;;;9.90;51.03;100143.63;5014251;28;20026;-79
2022/10/30 06:33:01;;;;;;;12.10;8.98;;;;;;;10.11;50.88;100157.22;5012716;28;20021;-80
2022/10/30 06:35:27;;;;;;;11.25;8.75;;;;;;;10.52;50.88;100207.53;5014114;28;20494;-79
2022/10/30 06:37:55;;;;;;;11.40;8.35;;;;;;;10.74;50.22;100201.63;5013918;28;20029;-80
2022/10/30 06:40:20;;;;;;;14.10;9.70;;;;;;;10.24;50.58;100130.41;5012606;28;20076;-80
2022/10/30 06:42:49;;;;;;;16.02;10.13;;;;;;;10.80;50.85;100207.09;5013696;28;20029;-80
2022/10/30 06:45:16;;;;;;;16.42;11.32;;;;;;;11.20;50.73;100234.56;5012321;28;20092;-79
2022/10/30 06:47:42;;;;;;;16.90;11.20;;;;;;;10.97;49.82;100164.84;5013751;28;20033;-79
2022/10/30 06:50:10;;;;;;;19.40;11.68;;;;;;;11.42;49.41;100228.59;5012628;28;20036;-80
2022/10/30 06:52:36;;;;;;;17.25;10.73;;;;;;;11.17;49.72;100175.94;5013997;28;20022;-80
2022/10/30 06:55:01;;;;;;;18.48;11.55;;;;;;;11.42;49.94;100230.44;5013100;28;20041;-80
2022/10/30 06:57:27;;;;;;;13.70;10.55;;;;;;;11.66;49.61;100213.69;5019523;28;20030;-80
2022/10/30 06:59:52;;;;;;;18.42;12.35;;;;;;;11.71;49.52;100206.06;5024804;28;20160;-79
2022/10/30 07:02:18;;;;;;;23.50;15.85;;;;;;;11.76;49.22;100196.63;5015119;28;20056;-80
2022/10/30 07:04:44;;;;;;;30.02;19.30;;;;;;;10.46;49.63;99972.25;5012512;28;20430;-80
2022/10/30 07:07:10;;;;;;;32.85;15.77;;;;;;;11.83;49.10;100173.00;5013270;28;20049;-80
2022/10/30 07:09:36;;;;;;;22.17;14.48;;;;;;;12.09;49.34;100194.75;5013666;28;20041;-80
2022/10/30 07:12:01;;;;;;;15.57;13.10;;;;;;;10.89;49.03;99998.41;5013435;28;20418;-80
2022/10/30 07:14:26;;;;;;;16.15;12.52;;;;;;;11.58;48.55;100063.78;5013266;28;20491;-80
2022/10/30 07:16:54;;;;;;;13.35;10.45;;;;;;;12.30;48.93;100161.56;5013218;28;20088;-80
2022/10/30 07:19:19;;;;;;;14.43;10.57;;;;;;;12.44;48.86;100168.78;5013090;28;20104;-80
2022/10/30 07:21:45;;;;;;;16.20;10.07;;;;;;;12.68;48.80;100189.84;5012931;28;20113;-80
2022/10/30 07:24:10;;;;;;;11.95;9.57;;;;;;;12.58;48.82;100148.66;5012916;28;20458;-80
2022/10/30 07:26:37;;;;;;;12.98;9.38;;;;;;;12.81;48.56;100183.13;5012890;28;20030;-80
2022/10/30 07:29:03;;;;;;;12.10;10.18;;;;;;;12.90;47.86;100166.16;5012874;28;20021;-79
2022/10/30 07:31:28;;;;;;;13.27;9.85;;;;;;;12.73;47.95;100136.31;5012974;28;20080;-80
2022/10/30 07:33:54;;;;;;;11.63;8.27;;;;;;;12.98;48.08;100151.03;5012958;28;20034;-80
2022/10/30 07:36:19;;;;;;;9.95;7.90;;;;;;;12.67;48.02;100092.81;5012709;28;20483;-80
2022/10/30 07:38:47;;;;;;;10.40;8.15;;;;;;;13.43;47.81;100201.56;5012153;28;20037;-80
2022/10/30 07:41:12;;;;;;;9.35;6.28;;;;;;;12.21;47.85;100003.78;5012966;28;20038;-80
2022/10/30 07:43:37;;;;;;;10.45;6.85;;;;;;;12.91;47.58;100085.66;5012805;28;20079;-80
2022/10/30 07:46:03;;;;;;;7.95;6.70;;;;;;;11.76;47.37;99892.41;5012399;28;20025;-80
2022/10/30 07:48:28;;;;;;;7.72;6.78;;;;;;;13.01;47.43;100079.09;5012541;28;20037;-80
2022/10/30 07:50:54;;;;;;;10.07;7.32;;;;;;;13.34;47.18;100131.81;5012583;28;20491;-80
2022/10/30 07:53:19;;;;;;;10.70;7.07;;;;;;;13.61;47.37;100138.38;5011298;28;20018;-80
2022/10/30 07:55:44;;;;;;;7.45;6.40;;;;;;;14.02;47.45;100199.75;5012739;28;20033;-80
2022/10/30 07:58:10;;;;;;;9.57;6.63;;;;;;;13.61;46.90;100114.47;5012858;28;20022;-80
2022/10/30 08:00:35;;;;;;;9.52;6.97;;;;;;;14.22;46.97;100194.72;5012229;28;20036;-79
2022/10/30 08:03:01;;;;;;;11.70;6.65;;;;;;;13.86;46.65;100115.84;5011015;28;20026;-80
2022/10/30 08:05:26;;;;;;;10.02;7.00;;;;;;;14.31;46.57;100164.41;5012470;28;20109;-80
2022/10/30 08:07:51;;;;;;;10.18;6.80;;;;;;;14.47;46.39;100180.13;5010943;28;20050;-80
2022/10/30 08:10:17;;;;;;;9.02;6.63;;;;;;;13.92;46.40;100071.78;5012469;28;20475;-80
2022/10/30 08:12:44;;;;;;;12.13;7.00;;;;;;;13.97;46.24;100061.44;5012007;28;20534;-80
2022/10/30 08:15:11;;;;;;;12.00;7.55;;;;;;;14.19;45.99;100078.25;5011172;28;20025;-80
2022/10/30 08:17:47;;;;;;;12.77;6.95;;;;;;;14.90;45.83;100175.69;5012818;28;20034;-80
2022/10/30 08:20:15;;;;;;;9.57;6.70;;;;;;;14.40;45.54;100085.41;5010956;28;20026;-80
2022/10/30 08:22:48;;;;;;;6.88;5.20;;;;;;;14.69;45.45;100098.59;5012196;28;20029;-80
2022/10/30 08:25:15;;;;;;;4.90;3.80;;;;;;;14.73;45.25;100067.94;5012473;28;20029;-80
2022/10/30 08:27:59;;;;;;;7.13;3.97;;;;;;;15.08;44.96;100116.72;5012151;28;20113;-80
2022/10/30 08:30:27;;;;;;;5.10;4.20;;;;;;;15.13;44.60;100101.00;5010541;28;20065;-80
2022/10/30 08:32:58;;;;;;;5.15;3.80;;;;;;;15.47;44.50;100133.97;5011778;28;20420;-80
2022/10/30 08:35:23;;;;;;;5.47;3.70;;;;;;;15.47;44.25;100116.16;5011862;28;20050;-80
2022/10/30 08:37:51;;;;;;;6.07;3.63;;;;;;;15.24;43.91;100079.19;5011886;28;20474;-80
2022/10/30 08:40:16;;;;;;;6.85;4.05;;;;;;;15.70;43.69;100107.13;5010509;28;20422;-80
2022/10/30 08:42:42;;;;;;;6.40;4.22;;;;;;;15.58;43.40;100072.25;5011645;28;20057;-80
2022/10/30 08:45:07;;;;;;;5.85;3.55;;;;;;;16.23;43.47;100156.13;5010397;28;20029;-79
2022/10/30 08:47:33;;;;;;;5.88;3.85;;;;;;;15.98;43.05;100099.88;5011418;28;20033;-80
2022/10/30 08:49:58;;;;;;;5.60;4.00;;;;;;;16.02;42.84;100082.47;5011556;28;20038;-80
2022/10/30 08:52:23;;;;;;;6.45;3.50;;;;;;;16.33;42.74;100153.06;5011467;28;20101;-80
2022/10/30 08:54:49;;;;;;;4.90;4.35;;;;;;;16.56;42.37;100137.59;5011413;28;20080;-79
2022/10/30 08:57:14;;;;;;;7.00;5.35;;;;;;;16.15;42.39;100068.38;5011519;28;20399;-80
2022/10/30 08:59:39;;;;;;;9.02;6.53;;;;;;;16.63;42.12;100116.25;5011451;28;20050;-80
2022/10/30 09:02:06;;;;;;;9.50;4.30;;;;;;;16.50;41.90;100071.75;5011434;28;20557;-80
2022/10/30 09:04:32;;;;;;;9.15;5.00;;;;;;;15.85;42.22;99986.16;5011680;28;20025;-80
2022/10/30 09:06:59;;;;;;;5.93;4.10;;;;;;;17.03;41.96;100127.81;5011599;28;20108;-80
2022/10/30 09:09:25;;;;;;;8.07;4.22;;;;;;;16.53;41.86;100061.50;5010365;28;20191;-80
2022/10/30 09:11:50;;;;;;;5.63;3.92;;;;;;;16.53;41.46;100036.69;5010249;28;20122;-80
2022/10/30 09:14:16;;;;;;;5.35;4.72;;;;;;;17.05;41.51;100104.41;5011579;28;20022;-80
2022/10/30 09:16:41;;;;;;;5.93;3.90;;;;;;;17.19;41.14;100098.06;5011468;28;20037;-80
2022/10/30 09:19:06;;;;;;;5.18;3.33;;;;;;;16.93;41.10;100039.38;5011341;28;20034;-80
2022/10/30 09:21:32;;;;;;;5.25;4.32;;;;;;;17.13;40.76;100066.88;5011149;28;20045;-80
2022/10/30 09:23:57;;;;;;;4.88;3.97;;;;;;;17.43;40.44;100094.72;5011628;28;20030;-79
2022/10/30 09:26:23;;;;;;;8.27;4.35;;;;;;;17.52;40.26;100083.81;5011321;28;20030;-79
2022/10/30 09:28:48;;;;;;;6.10;5.50;;;;;;;17.39;40.41;100042.78;5011278;28;20091;-79
2022/10/30 09:31:14;;;;;;;9.32;5.63;;;;;;;17.60;40.18;100052.38;5013627;28;20022;-80
2022/10/30 09:33:39;;;;;;;6.78;5.95;;;;;;;17.92;39.87;100085.38;5015245;28;20022;-79
2022/10/30 09:36:05;;;;;;;5.10;3.33;;;;;;;17.63;39.84;100019.91;5014979;28;20557;-80
2022/10/30 09:38:30;;;;;;;4.15;3.60;;;;;;;17.86;39.19;100050.69;5014903;28;20065;-80
2022/10/30 09:41:28;;;;;;;6.88;4.00;;;;;;;18.34;39.05;100099.13;5013601;28;20033;-80
2022/10/30 09:44:12;;;;;;;6.00;4.22;;;;;;;18.17;38.97;100048.03;5014930;28;20034;-80
2022/10/30 09:47:02;;;;;;;6.13;4.78;;;;;;;18.33;38.96;100060.88;5013487;28;20037;-80
2022/10/30 09:49:36;;;;;;;5.30;3.95;;;;;;;18.62;39.16;100086.25;5014796;28;20029;-80
2022/10/30 09:52:34;;;;;;;4.38;3.75;;;;;;;18.55;38.29;100056.00;5013448;28;20026;-79
2022/10/30 09:55:36;;;;;;;4.57;3.05;;;;;;;18.78;38.10;100074.19;5028879;28;20049;-80
2022/10/30 09:58:22;;;;;;;5.00;3.42;;;;;;;18.89;38.37;100068.13;5013405;28;20022;-80
2022/10/30 10:01:18;;;;;;;8.00;5.55;;;;;;;19.01;38.18;100074.38;5014268;28;20102;-78
2022/10/30 10:04:01;;;;;;;7.25;4.47;;;;;;;19.10;37.85;100060.72;5014619;28;20041;-79
2022/10/30 10:06:27;;;;;;;6.03;2.97;;;;;;;18.78;37.71;100004.63;5014338;28;20026;-79
2022/10/30 10:09:02;;;;;;;4.88;3.22;;;;;;;19.28;37.23;100058.06;5014708;28;20490;-79
2022/10/30 10:11:47;;;;;;;3.40;3.10;;;;;;;18.77;37.37;99970.06;5013152;28;20026;-79
2022/10/30 10:14:41;;;;;;;5.38;3.40;;;;;;;19.43;37.30;100052.38;5014460;28;20513;-79
2022/10/30 10:17:12;;;;;;;17.30;14.05;;;;;;;19.51;37.37;100041.38;5014049;28;20038;-79
2022/10/30 10:20:00;;;;;;;19.23;17.05;;;;;;;19.04;37.44;99956.19;5014282;28;20084;-79
2022/10/30 10:22:28;;;;;;;26.25;23.45;;;;;;;19.63;37.53;100034.25;5014252;28;20029;-79
2022/10/30 10:24:54;;;;;;;7.25;6.22;;;;;;;19.35;37.15;99978.50;5014403;28;20049;-79
2022/10/30 10:27:57;;;;;;;22.52;19.38;;;;;;;19.75;36.86;100028.94;5014184;28;20041;-79
2022/10/30 10:30:24;;;;;;;6.57;5.30;;;;;;;19.35;36.40;99970.47;5013946;28;20100;-79
2022/10/30 10:32:56;;;;;;;8.38;4.25;;;;;;;19.82;36.29;100022.44;5014278;28;20026;-79
2022/10/30 10:35:28;;;;;;;5.63;3.65;;;;;;;19.90;35.77;100018.63;5013776;28;20104;-79
2022/10/30 10:38:19;;;;;;;5.75;3.90;;;;;;;19.76;34.62;99985.03;5013894;28;20026;-79
2022/10/30 10:40:59;;;;;;;4.47;3.28;;;;;;;20.01;35.81;100020.53;5014027;28;20076;-79
2022/10/30 10:43:38;;;;;;;3.85;2.95;;;;;;;19.19;35.72;99875.50;5013948;28;20037;-80
2022/10/30 10:46:27;;;;;;;5.60;3.20;;;;;;;20.09;34.74;100008.72;5013876;28;20022;-79
2022/10/30 10:48:55;;;;;;;18.00;14.07;;;;;;;20.14;35.87;99998.94;5013726;28;20030;-79
2022/10/30 10:51:26;;;;;;;6.25;5.65;;;;;;;20.16;35.72;99994.16;5012357;28;20119;-79
2022/10/30 10:53:58;;;;;;;4.65;3.85;;;;;;;20.16;35.36;99991.47;5013686;28;20025;-80
2022/10/30 10:56:32;;;;;;;5.55;4.00;;;;;;;19.30;35.22;99861.34;5013653;28;20108;-79
2022/10/30 10:59:03;;;;;;;9.60;8.60;;;;;;;20.08;35.64;99986.44;5013554;28;20041;-80
2022/10/30 11:01:39;;;;;;;17.80;10.13;;;;;;;19.89;35.74;99939.28;5012400;28;20465;-80
2022/10/30 11:04:17;;;;;;;10.55;5.55;;;;;;;20.14;35.72;99979.34;5013251;28;20375;-79
2022/10/30 11:06:49;;;;;;;9.32;4.05;;;;;;;20.14;35.31;99972.13;5013027;28;20057;-80
2022/10/30 11:09:18;;;;;;;8.57;7.10;;;;;;;19.43;35.16;99857.72;5013506;28;20545;-79
2022/10/30 11:11:45;;;;;;;7.38;5.40;;;;;;;19.75;35.47;99908.38;5013258;28;20025;-80
2022/10/30 11:14:17;;;;;;;6.72;3.67;;;;;;;19.83;35.27;99905.38;5019386;28;20014;-80
2022/10/30 11:17:01;;;;;;;5.72;3.55;;;;;;;20.17;35.25;99954.75;5020862;28;20450;-79
2022/10/30 11:19:30;;;;;;;6.63;4.78;;;;;;;19.92;35.20;99926.25;5013584;28;20084;-80
2022/10/30 11:21:57;;;;;;;3.67;3.30;;;;;;;19.66;35.08;99876.56;5013409;28;20049;-79
2022/10/30 11:24:29;;;;;;;21.02;18.77;;;;;;;20.12;35.48;99950.09;5013343;28;20040;-81
2022/10/30 11:26:56;;;;;;;;;;;;;;;19.98;35.68;99941.41;5013789;28;20025;-77
2022/10/30 11:29:24;;;;;;;5.18;3.92;;;;;;;20.04;35.26;99938.84;5013115;28;19959;-78
2022/10/30 11:32:01;;;;;;;4.35;3.40;;;;;;;19.66;34.83;99879.22;5012980;28;20022;-78
2022/10/30 11:34:37;;;;;;;8.02;5.53;;;;;;;19.87;34.96;99907.34;5011629;28;20022;-79